Meteo Giornale » Osservazioni meteo Pakistan » Peshawar
ore: 23:30 - Osservazioni Meteo Peshawar
Lat. 34° 1' N Lon. 71° 35' E Alt. 359 metri s.l.m.
31 °C
Nuvoloso
Temp. 24 Ore
28 °C
35 °C
Nord-Ovest
7.4 Km/h
Dew point 25 °C
Umidità 70 %
Visibilità 4 Km
Il sole sorge alle ore 05:46
Il sole tramonta alle ore 18:41
| Data e Ora | Cielo e Fenomeni | T °C | DP °C | Um. % | Pres. hPa | Vis. km | Vento km/h | |
|---|---|---|---|---|---|---|---|---|
| Oggi h: 23:30 | Nuvoloso | 31 | 25 | 70 | 1002 | 4 | NO 7.4 | |
| Oggi h: 23:00 | Nuvoloso | 31 | 25 | 70 | 1002 | 4 | NO 7.4 | |
| Oggi h: 22:30 | Nuvoloso | 31 | 25 | 70 | 1002 | 4 | NO 7.4 | |
| Oggi h: 22:00 | Nuvoloso | 31 | 25 | 70 | 1002 | 4 | NO 7.4 | |
| Oggi h: 21:30 | Nuvoloso | 31 | 25 | 70 | 1001 | 4 | NO 14.8 | |
| Oggi h: 21:00 | Nuvoloso | 31 | 25 | 70 | 1001 | 4 | NO 14.8 | |
| Oggi h: 20:30 | Nuvoloso | 31 | 25 | 70 | 1001 | 4 | NO 14.8 | |
| Oggi h: 20:00 | Nuvoloso | 31 | 25 | 70 | 1001 | 4 | NO 14.8 | |
| Oggi h: 19:30 | Nuvoloso | 32 | 25 | 66 | 1000 | 4 | N 14.8 | |
| Oggi h: 19:00 | Nuvoloso | 32 | 25 | 66 | 1000 | 4 | N 14.8 | |
| Oggi h: 18:30 | Molto Nuvoloso | 34 | 25 | 59 | 1000 | 4 | NE 25.9 | |
| Oggi h: 18:00 | Molto Nuvoloso | 34 | 25 | 59 | 1000 | 4 | NE 25.9 | |
| Oggi h: 17:30 | Molto Nuvoloso | 34 | 25 | 59 | 999 | 4 | NE 25.9 | |
| Oggi h: 17:00 | Molto Nuvoloso | 34 | 25 | 59 | 999 | 4 | NE 25.9 | |
| Oggi h: 16:30 | Nuvoloso | 34 | 25 | 59 | 1000 | 4 | N 18.5 | |
| Oggi h: 16:00 | Nuvoloso | 34 | 25 | 59 | 1000 | 4 | N 18.5 | |
| Oggi h: 15:30 | Nuvoloso | 35 | 25 | 56 | 1000 | 4 | NE 18.5 | |
| Oggi h: 15:00 | Nuvoloso | 35 | 25 | 56 | 1000 | 4 | NE 18.5 | |
| Oggi h: 14:30 | Nuvoloso | 34 | 25 | 59 | 1001 | 4 | NE 18.5 | |
| Oggi h: 14:00 | Nuvoloso | 34 | 25 | 59 | 1001 | 4 | NE 18.5 | |
| Oggi h: 13:30 | Nuvoloso | 34 | 24 | 56 | 1002 | 4 | NE 14.8 | |
| Oggi h: 13:00 | Nuvoloso | 34 | 24 | 56 | 1002 | 4 | NE 14.8 | |
| Oggi h: 12:30 | Poco Nuvoloso | 34 | 24 | 56 | 1002 | 4 | NE 14.8 | |
| Oggi h: 12:00 | Poco Nuvoloso | 34 | 24 | 56 | 1002 | 4 | NE 14.8 | |
| Oggi h: 11:30 | Poco Nuvoloso | 33 | 24 | 59 | 1003 | 4 | NE 14.8 | |
| Oggi h: 11:00 | Poco Nuvoloso | 33 | 24 | 59 | 1003 | 4 | NE 14.8 | |
| Oggi h: 10:30 | Poco Nuvoloso | 30 | 24 | 70 | 1003 | 4 | NO 7.4 | |
| Oggi h: 10:00 | Nuvoloso | 30 | 24 | 70 | 1003 | 4 | NO 7.4 | |
| Oggi h: 09:30 | Nuvoloso | 30 | 24 | 70 | 1003 | 4 | NO 7.4 | |
| Oggi h: 09:00 | Nuvoloso | 30 | 24 | 70 | 1003 | 4 | NO 7.4 | |
| Oggi h: 08:30 | Nuvoloso | 30 | 22 | 62 | 1002 | 4 | NE 7.4 | |
| Oggi h: 08:00 | Nuvoloso | 30 | 22 | 62 | 1002 | 4 | NE 7.4 | |
| Oggi h: 07:30 | Nuvoloso | 28 | 23 | 74 | 1003 | 4 | NO 18.5 | |
| Oggi h: 07:00 | Nuvoloso | 28 | 23 | 74 | 1003 | 4 | NO 18.5 | |
| Oggi h: 06:30 | Nuvoloso | 28 | 23 | 74 | 1003 | 4 | NO 18.5 | |
| Oggi h: 06:00 | Nuvoloso | 28 | 23 | 74 | 1003 | 4 | NO 18.5 | |
| Oggi h: 05:30 | Nuvoloso | 29 | 23 | 70 | 1002 | 4 | NO 18.5 | |
| Oggi h: 05:00 | Nuvoloso | 29 | 23 | 70 | 1002 | 4 | NO 18.5 | |
| Oggi h: 04:30 | Nuvoloso | 29 | 23 | 70 | 1002 | 4 | NO 18.5 | |
| Oggi h: 03:30 | Nuvoloso | 29 | 23 | 70 | 1002 | 4 | NO 18.5 | |
| Oggi h: 03:00 | Nuvoloso | 29 | 23 | 70 | 1002 | 4 | NO 18.5 | |
| Oggi h: 02:30 | Nuvoloso | 29 | 23 | 70 | 1002 | 4 | NO 18.5 | |
| Oggi h: 02:00 | Nuvoloso | 29 | 23 | 70 | 1002 | 4 | NO 18.5 | |
| Oggi h: 01:30 | Nuvoloso | 29 | 23 | 70 | 1002 | 4 | NO 18.5 | |
| Oggi h: 01:00 | Nuvoloso | 29 | 23 | 70 | 1002 | 4 | NO 18.5 | |
| Oggi h: 00:30 | Nuvoloso | 29 | 23 | 70 | 1002 | 4 | NO 18.5 | |
| Oggi h: 00:00 | Nuvoloso | 29 | 23 | 70 | 1002 | 4 | NO 18.5 | |



